createdAt,value
2019-02-21T00:02:20.322Z,100.00
2019-02-21T00:04:49.407Z,100.00
2019-02-21T00:07:18.601Z,100.00
2019-02-21T00:09:47.699Z,100.00
2019-02-21T00:12:16.796Z,100.00
2019-02-21T00:14:45.891Z,100.00
2019-02-21T00:17:15.117Z,100.00
2019-02-21T00:19:44.628Z,100.00
2019-02-21T00:22:13.788Z,100.00
2019-02-21T00:24:43.090Z,100.00
2019-02-21T00:27:12.128Z,100.00
2019-02-21T00:29:41.312Z,100.00
2019-02-21T00:32:10.478Z,100.00
2019-02-21T00:34:39.734Z,100.00
2019-02-21T00:37:08.963Z,100.00
2019-02-21T00:39:38.062Z,100.00
2019-02-21T00:42:07.297Z,100.00
2019-02-21T00:44:36.785Z,100.00
2019-02-21T00:47:05.904Z,100.00
2019-02-21T00:49:35.078Z,100.00
2019-02-21T00:52:04.320Z,100.00
2019-02-21T00:54:33.413Z,100.00
2019-02-21T00:57:02.755Z,100.00
2019-02-21T00:59:31.796Z,100.00
2019-02-21T01:02:01.264Z,100.00
2019-02-21T01:04:30.306Z,100.00
2019-02-21T01:06:59.659Z,100.00
2019-02-21T01:09:28.812Z,100.00
2019-02-21T01:11:58.164Z,100.00
2019-02-21T01:14:27.237Z,100.00
2019-02-21T01:16:56.453Z,100.00
2019-02-21T01:19:25.583Z,100.00
2019-02-21T01:21:54.923Z,100.00
2019-02-21T01:24:24.188Z,100.00
2019-02-21T01:26:53.423Z,100.00
2019-02-21T01:29:22.756Z,100.00
2019-02-21T01:31:51.868Z,100.00
2019-02-21T01:34:21.066Z,100.00
2019-02-21T01:36:50.185Z,100.00
2019-02-21T01:39:19.535Z,100.00
2019-02-21T01:41:48.831Z,100.00
2019-02-21T01:44:17.876Z,100.00
2019-02-21T01:46:47.215Z,100.00
2019-02-21T01:49:16.309Z,100.00
2019-02-21T01:51:45.472Z,100.00
2019-02-21T01:54:14.926Z,100.00
2019-02-21T01:56:44.056Z,99.33
2019-02-21T01:59:13.356Z,99.33
2019-02-21T02:01:42.408Z,99.34
2019-02-21T02:04:11.690Z,99.67
2019-02-21T02:06:40.942Z,99.67
2019-02-21T02:09:13.434Z,100.00
2019-02-21T02:11:42.503Z,100.00
2019-02-21T02:14:11.689Z,100.00
2019-02-21T02:16:42.670Z,100.00
2019-02-21T02:19:11.930Z,100.00
2019-02-21T02:21:41.144Z,100.00
2019-02-21T02:24:10.278Z,100.00
2019-02-21T02:27:08.440Z,100.00
2019-02-21T02:29:37.681Z,100.00
2019-02-21T02:32:09.602Z,100.00
2019-02-21T02:34:37.536Z,100.00
2019-02-21T02:37:06.758Z,100.00
2019-02-21T02:39:35.855Z,100.00
2019-02-21T02:42:05.062Z,100.00
2019-02-21T02:44:34.300Z,100.00
2019-02-21T02:47:03.558Z,100.00
2019-02-21T02:49:32.695Z,100.00
2019-02-21T02:52:02.098Z,100.00
2019-02-21T02:54:31.331Z,100.00
2019-02-21T02:57:00.656Z,100.00
2019-02-21T02:59:40.349Z,100.00
2019-02-21T03:02:00.755Z,100.00
2019-02-21T03:04:30.083Z,100.00
2019-02-21T03:07:02.121Z,100.00
2019-02-21T03:09:31.505Z,100.00
2019-02-21T03:12:00.586Z,100.00
2019-02-21T03:14:29.907Z,100.00
2019-02-21T03:16:59.436Z,100.00
2019-02-21T03:19:28.500Z,100.00
2019-02-21T03:21:57.595Z,100.00
2019-02-21T03:24:27.349Z,100.00
2019-02-21T03:26:56.430Z,100.00
2019-02-21T03:29:25.513Z,100.00
2019-02-21T03:31:56.157Z,100.00
2019-02-21T03:34:25.585Z,100.00
2019-02-21T03:36:54.782Z,100.00
2019-02-21T03:39:25.121Z,100.00
2019-02-21T03:41:54.200Z,100.00
2019-02-21T03:44:23.418Z,100.00
2019-02-21T03:46:52.689Z,100.00
2019-02-21T03:49:21.833Z,100.00
2019-02-21T03:51:51.191Z,100.00
2019-02-21T03:54:20.296Z,100.00
2019-02-21T03:56:49.726Z,100.00
2019-02-21T03:59:18.754Z,100.00
2019-02-21T04:01:48.127Z,100.00
2019-02-21T04:04:17.394Z,100.00
2019-02-21T04:06:46.440Z,100.00
2019-02-21T04:09:15.768Z,100.00
2019-02-21T04:11:44.850Z,100.00
2019-02-21T04:14:14.047Z,100.00
2019-02-21T04:16:43.333Z,100.00
2019-02-21T04:19:12.587Z,100.00
2019-02-21T04:21:42.012Z,100.00
2019-02-21T04:24:11.095Z,100.00
2019-02-21T04:26:40.197Z,100.00
2019-02-21T04:29:09.563Z,100.00
2019-02-21T04:31:38.617Z,100.00
2019-02-21T04:34:08.001Z,100.00
2019-02-21T04:36:37.093Z,100.00
2019-02-21T04:39:06.649Z,100.00
2019-02-21T04:41:35.722Z,100.00
2019-02-21T04:44:04.902Z,100.00
2019-02-21T04:46:34.037Z,100.00
2019-02-21T04:49:03.373Z,100.00
2019-02-21T04:51:32.424Z,100.00
2019-02-21T04:54:01.709Z,100.00
2019-02-21T04:56:30.804Z,100.00
2019-02-21T04:59:00.200Z,100.00
2019-02-21T05:01:29.385Z,100.00
2019-02-21T05:03:58.762Z,100.00
2019-02-21T05:06:28.209Z,100.00
2019-02-21T05:08:57.537Z,100.00
2019-02-21T05:11:26.606Z,100.00
2019-02-21T05:13:55.674Z,100.00
2019-02-21T05:16:24.787Z,100.00
2019-02-21T05:18:54.038Z,100.00
2019-02-21T05:21:24.624Z,100.00
2019-02-21T05:23:53.696Z,100.00
2019-02-21T05:26:28.606Z,100.00
2019-02-21T05:28:57.671Z,100.00
2019-02-21T05:31:44.714Z,100.00
2019-02-21T05:34:30.147Z,100.00
2019-02-21T05:37:11.209Z,100.00
2019-02-21T05:39:52.919Z,100.00
2019-02-21T05:42:44.215Z,100.00
2019-02-21T05:45:28.388Z,100.00
2019-02-21T05:48:19.299Z,100.00
2019-02-21T05:51:07.329Z,100.00
2019-02-21T05:53:41.647Z,100.00
2019-02-21T05:56:16.991Z,100.00
2019-02-21T05:59:14.494Z,100.00
2019-02-21T06:02:01.621Z,100.00
2019-02-21T06:04:51.888Z,100.00
2019-02-21T06:07:48.619Z,100.00
2019-02-21T06:10:24.114Z,100.00
2019-02-21T06:13:18.219Z,100.00
2019-02-21T06:16:15.371Z,100.00
2019-02-21T06:19:05.482Z,100.00
2019-02-21T06:21:50.739Z,100.00
2019-02-21T06:24:28.034Z,100.00
2019-02-21T06:27:28.748Z,100.00
2019-02-21T06:30:01.733Z,100.00
2019-02-21T06:32:31.014Z,100.00
2019-02-21T06:35:02.520Z,100.00
2019-02-21T06:37:31.035Z,100.00
2019-02-21T06:40:00.143Z,98.53
2019-02-21T06:42:29.334Z,98.25
2019-02-21T06:44:58.381Z,97.91
2019-02-21T06:47:27.444Z,97.91
2019-02-21T06:49:58.644Z,97.46
2019-02-21T06:52:27.507Z,97.46
2019-02-21T06:54:56.928Z,98.69
2019-02-21T06:57:26.158Z,98.69
2019-02-21T06:59:55.297Z,98.48
2019-02-21T07:02:24.509Z,99.04
2019-02-21T07:04:53.886Z,99.04
2019-02-21T07:07:23.025Z,98.74
2019-02-21T07:09:52.391Z,99.05
2019-02-21T07:12:21.479Z,99.58
2019-02-21T07:14:50.612Z,99.58
2019-02-21T07:17:19.910Z,99.66
2019-02-21T07:19:49.232Z,100.00
2019-02-21T07:22:22.324Z,100.00
2019-02-21T07:24:54.148Z,100.00
2019-02-21T07:27:23.354Z,99.58
2019-02-21T07:29:52.448Z,99.56
2019-02-21T07:32:21.509Z,99.56
2019-02-21T07:34:50.639Z,98.65
2019-02-21T07:37:19.688Z,98.45
2019-02-21T07:39:50.806Z,98.45
2019-02-21T07:42:19.633Z,98.53
2019-02-21T07:44:48.993Z,98.68
2019-02-21T07:47:18.091Z,98.88
2019-02-21T07:49:47.204Z,98.88
2019-02-21T07:52:16.283Z,98.62
2019-02-21T07:54:45.471Z,98.50
2019-02-21T07:57:14.508Z,97.98
2019-02-21T07:59:43.618Z,97.98
2019-02-21T08:02:12.766Z,97.88
2019-02-21T08:04:42.026Z,96.81
2019-02-21T08:07:11.076Z,95.98
2019-02-21T08:09:41.657Z,93.72
2019-02-21T08:12:12.723Z,93.72
2019-02-21T08:14:43.407Z,93.51
2019-02-21T08:17:12.960Z,93.34
2019-02-21T08:19:42.222Z,93.40
2019-02-21T08:22:11.357Z,92.79
2019-02-21T08:24:40.661Z,90.99
2019-02-21T08:27:09.767Z,90.99
2019-02-21T08:29:38.980Z,90.09
2019-02-21T08:32:08.585Z,90.40
2019-02-21T08:34:41.374Z,90.40
2019-02-21T08:37:10.560Z,90.32
2019-02-21T08:39:39.787Z,90.23
2019-02-21T08:42:09.020Z,90.04
2019-02-21T08:44:38.349Z,89.22
2019-02-21T08:47:07.524Z,87.35
2019-02-21T08:49:36.931Z,86.44
2019-02-21T08:52:06.076Z,85.36
2019-02-21T08:54:35.225Z,84.14
2019-02-21T08:57:04.691Z,83.67
2019-02-21T08:59:33.763Z,82.98
2019-02-21T09:02:04.956Z,80.87
2019-02-21T09:04:33.931Z,80.50
2019-02-21T09:07:03.379Z,79.88
2019-02-21T09:09:33.434Z,79.26
2019-02-21T09:12:05.414Z,78.22
2019-02-21T09:14:33.846Z,77.37
2019-02-21T09:17:02.923Z,76.35
2019-02-21T09:19:32.365Z,76.48
2019-02-21T09:22:01.476Z,75.92
2019-02-21T09:24:38.732Z,75.67
2019-02-21T09:27:01.528Z,75.03
2019-02-21T09:29:30.594Z,74.47
2019-02-21T09:31:59.703Z,73.83
2019-02-21T09:34:28.791Z,73.23
2019-02-21T09:36:57.867Z,73.93
2019-02-21T09:39:27.177Z,73.29
2019-02-21T09:41:56.239Z,73.16
2019-02-21T09:44:27.458Z,73.79
2019-02-21T09:46:56.255Z,74.37
2019-02-21T09:49:27.245Z,74.39
2019-02-21T09:51:56.292Z,74.13
2019-02-21T09:54:25.949Z,74.71
2019-02-21T09:56:55.383Z,74.11
2019-02-21T09:59:24.852Z,74.26
2019-02-21T10:01:53.999Z,74.20
2019-02-21T10:04:31.836Z,74.17
2019-02-21T10:06:54.240Z,74.58
2019-02-21T10:09:23.620Z,74.96
2019-02-21T10:11:52.895Z,74.89
2019-02-21T10:14:21.989Z,74.66
2019-02-21T10:16:51.280Z,74.32
2019-02-21T10:19:20.557Z,75.20
2019-02-21T10:21:49.712Z,74.24
2019-02-21T10:24:19.033Z,75.10
2019-02-21T10:26:48.125Z,74.91
2019-02-21T10:29:17.381Z,74.89
2019-02-21T10:31:46.559Z,75.06
2019-02-21T10:34:15.857Z,74.99
2019-02-21T10:36:45.084Z,74.85
2019-02-21T10:39:14.290Z,73.76
2019-02-21T10:41:43.773Z,73.28
2019-02-21T10:44:12.887Z,71.96
2019-02-21T10:46:41.984Z,71.70
2019-02-21T10:49:11.149Z,71.13
2019-02-21T10:51:40.309Z,72.00
2019-02-21T10:54:09.529Z,71.36
2019-02-21T10:56:38.766Z,70.86
2019-02-21T10:59:07.973Z,70.40
2019-02-21T11:01:37.196Z,69.25
2019-02-21T11:04:06.321Z,68.89
2019-02-21T11:06:35.609Z,68.05
2019-02-21T11:09:08.075Z,67.91
2019-02-21T11:11:37.135Z,68.53
2019-02-21T11:14:06.476Z,67.75
2019-02-21T11:16:35.560Z,67.35
2019-02-21T11:19:04.882Z,65.91
2019-02-21T11:21:34.004Z,66.07
2019-02-21T11:24:03.134Z,65.97
2019-02-21T11:26:32.414Z,64.48
2019-02-21T11:29:02.042Z,64.00
2019-02-21T11:31:31.121Z,63.91
2019-02-21T11:34:00.245Z,64.05
2019-02-21T11:36:29.285Z,65.08
2019-02-21T11:38:58.537Z,64.39
2019-02-21T11:41:27.769Z,63.88
2019-02-21T11:43:56.893Z,64.10
2019-02-21T11:46:26.080Z,64.64
2019-02-21T11:48:55.327Z,65.69
2019-02-21T11:51:24.528Z,65.36
2019-02-21T11:53:54.150Z,65.94
2019-02-21T11:56:23.238Z,66.09
2019-02-21T11:58:52.307Z,66.58
2019-02-21T12:01:21.559Z,67.23
2019-02-21T12:03:50.690Z,66.87
2019-02-21T12:06:19.772Z,65.98
2019-02-21T12:08:49.105Z,66.37
2019-02-21T12:11:18.395Z,65.28
2019-02-21T12:13:47.624Z,64.85
2019-02-21T12:16:16.723Z,64.11
2019-02-21T12:18:46.012Z,63.99
2019-02-21T12:21:15.220Z,63.82
2019-02-21T12:23:44.449Z,63.47
2019-02-21T12:26:13.677Z,64.04
2019-02-21T12:28:42.803Z,63.12
2019-02-21T12:31:12.150Z,63.32
2019-02-21T12:33:41.369Z,63.50
2019-02-21T12:36:10.531Z,62.67
2019-02-21T12:38:39.802Z,62.62
2019-02-21T12:41:09.160Z,61.82
2019-02-21T12:43:38.241Z,61.84
2019-02-21T12:46:07.518Z,61.43
2019-02-21T12:48:36.595Z,61.37
2019-02-21T12:51:05.937Z,62.33
2019-02-21T12:53:35.043Z,61.72
2019-02-21T12:56:05.424Z,61.80
2019-02-21T12:58:34.630Z,61.69
2019-02-21T13:01:03.952Z,61.68
2019-02-21T13:03:33.052Z,61.57
2019-02-21T13:06:04.103Z,62.03
2019-02-21T13:08:33.368Z,62.20
2019-02-21T13:11:03.201Z,61.72
2019-02-21T13:13:32.354Z,62.50
2019-02-21T13:16:01.419Z,61.97
2019-02-21T13:18:30.468Z,62.71
2019-02-21T13:20:59.540Z,63.40
2019-02-21T13:23:28.619Z,63.26
2019-02-21T13:25:57.902Z,63.91
2019-02-21T13:28:27.126Z,64.79
2019-02-21T13:30:56.224Z,63.48
2019-02-21T13:33:25.918Z,62.90
2019-02-21T13:35:55.082Z,61.62
2019-02-21T13:38:24.205Z,60.67
2019-02-21T13:40:53.448Z,59.71
2019-02-21T13:43:22.645Z,58.79
2019-02-21T13:45:51.782Z,58.95
2019-02-21T13:48:22.762Z,57.39
2019-02-21T13:50:52.249Z,59.12
2019-02-21T13:53:23.411Z,58.94
2019-02-21T13:55:52.520Z,58.98
2019-02-21T13:58:21.859Z,58.96
2019-02-21T14:00:52.018Z,59.18
2019-02-21T14:03:21.127Z,60.15
2019-02-21T14:05:50.407Z,60.73
2019-02-21T14:08:19.620Z,60.90
2019-02-21T14:10:49.873Z,61.22
2019-02-21T14:13:19.099Z,61.01
2019-02-21T14:15:48.242Z,61.85
2019-02-21T14:18:17.397Z,60.89
2019-02-21T14:20:46.820Z,60.75
2019-02-21T14:23:16.329Z,60.24
2019-02-21T14:25:45.725Z,60.45
2019-02-21T14:28:14.800Z,61.01
2019-02-21T14:30:43.866Z,60.69
2019-02-21T14:33:13.108Z,61.07
2019-02-21T14:35:42.199Z,60.57
2019-02-21T14:38:11.660Z,61.00
2019-02-21T14:40:40.781Z,61.13
2019-02-21T14:43:09.971Z,60.98
2019-02-21T14:45:39.361Z,60.63
2019-02-21T14:48:08.575Z,60.60
2019-02-21T14:50:37.692Z,60.08
2019-02-21T14:53:06.861Z,60.11
2019-02-21T14:55:35.955Z,60.13
2019-02-21T14:58:05.240Z,60.72
2019-02-21T15:00:35.570Z,60.26
2019-02-21T15:03:25.669Z,59.87
2019-02-21T15:05:57.224Z,59.56
2019-02-21T15:08:27.127Z,60.25
2019-02-21T15:10:57.718Z,60.60
2019-02-21T15:13:27.054Z,61.23
2019-02-21T15:15:56.174Z,60.98
2019-02-21T15:18:25.316Z,61.60
2019-02-21T15:20:54.881Z,61.68
2019-02-21T15:23:24.124Z,62.16
2019-02-21T15:25:53.659Z,62.08
2019-02-21T15:28:23.004Z,62.47
2019-02-21T15:30:52.230Z,63.04
2019-02-21T15:33:21.687Z,62.94
2019-02-21T15:35:50.934Z,63.29
2019-02-21T15:38:20.400Z,63.18
2019-02-21T15:40:50.080Z,62.62
2019-02-21T15:43:19.865Z,62.48
2019-02-21T15:45:49.480Z,62.99
2019-02-21T15:48:19.027Z,63.37
2019-02-21T15:50:48.262Z,63.56
2019-02-21T15:53:17.459Z,63.51
2019-02-21T15:55:46.648Z,62.80
2019-02-21T15:58:15.779Z,63.13
2019-02-21T16:00:45.242Z,63.04
2019-02-21T16:03:14.952Z,62.94
2019-02-21T16:05:44.724Z,62.95
2019-02-21T16:08:14.131Z,63.43
2019-02-21T16:10:43.503Z,63.10
2019-02-21T16:13:13.642Z,63.71
2019-02-21T16:15:43.107Z,63.77
2019-02-21T16:18:14.178Z,64.20
2019-02-21T16:20:43.597Z,63.98
2019-02-21T16:23:12.727Z,63.81
2019-02-21T16:25:43.504Z,64.10
2019-02-21T16:28:13.126Z,63.88
2019-02-21T16:30:42.359Z,64.35
2019-02-21T16:33:11.499Z,64.24
2019-02-21T16:35:40.702Z,63.89
2019-02-21T16:38:09.914Z,64.12
2019-02-21T16:40:39.246Z,63.91
2019-02-21T16:43:08.354Z,64.30
2019-02-21T16:45:43.382Z,65.02
2019-02-21T16:48:08.789Z,65.43
2019-02-21T16:50:39.826Z,65.83
2019-02-21T16:53:09.327Z,66.25
2019-02-21T16:55:39.932Z,66.60
2019-02-21T16:58:09.130Z,66.72
2019-02-21T17:00:51.347Z,66.90
2019-02-21T17:03:10.004Z,67.23
2019-02-21T17:05:39.327Z,67.78
2019-02-21T17:08:08.539Z,68.00
2019-02-21T17:10:38.055Z,68.43
2019-02-21T17:13:07.378Z,69.35
2019-02-21T17:15:36.731Z,69.51
2019-02-21T17:18:05.933Z,69.73
2019-02-21T17:20:35.847Z,69.98
2019-02-21T17:23:05.267Z,70.42
2019-02-21T17:25:34.360Z,70.90
2019-02-21T17:28:03.485Z,71.39
2019-02-21T17:30:32.811Z,71.93
2019-02-21T17:33:01.947Z,72.21
2019-02-21T17:35:31.290Z,72.52
2019-02-21T17:38:00.631Z,72.87
2019-02-21T17:40:32.144Z,73.17
2019-02-21T17:43:01.415Z,73.50
2019-02-21T17:45:30.959Z,73.83
2019-02-21T17:48:00.185Z,74.15
2019-02-21T17:50:29.426Z,74.53
2019-02-21T17:52:58.528Z,74.60
2019-02-21T17:55:27.661Z,74.61
2019-02-21T17:57:56.785Z,74.91
2019-02-21T18:00:30.364Z,75.15
2019-02-21T18:02:59.496Z,75.35
2019-02-21T18:05:28.576Z,75.56
2019-02-21T18:07:57.798Z,75.75
2019-02-21T18:10:26.898Z,75.93
2019-02-21T18:12:56.223Z,75.99
2019-02-21T18:15:25.353Z,76.29
2019-02-21T18:17:54.642Z,76.39
2019-02-21T18:20:23.727Z,76.11
2019-02-21T18:22:53.054Z,76.60
2019-02-21T18:25:28.978Z,76.69
2019-02-21T18:27:58.100Z,76.68
2019-02-21T18:30:27.320Z,76.96
2019-02-21T18:32:56.511Z,77.20
2019-02-21T18:35:25.643Z,77.42
2019-02-21T18:37:55.113Z,77.27
2019-02-21T18:40:24.365Z,77.50
2019-02-21T18:42:53.593Z,77.65
2019-02-21T18:45:22.844Z,77.66
2019-02-21T18:47:51.937Z,77.71
2019-02-21T18:50:21.209Z,77.81
2019-02-21T18:52:50.570Z,77.99
2019-02-21T18:55:19.804Z,78.26
2019-02-21T18:57:48.925Z,78.20
2019-02-21T19:00:19.478Z,78.10
2019-02-21T19:02:48.747Z,78.20
2019-02-21T19:05:18.330Z,78.29
2019-02-21T19:07:57.863Z,77.53
2019-02-21T19:10:19.000Z,77.82
2019-02-21T19:12:48.339Z,78.47
2019-02-21T19:15:19.293Z,79.00
2019-02-21T19:17:48.357Z,80.41
2019-02-21T19:20:17.821Z,80.88
2019-02-21T19:22:47.283Z,81.57
2019-02-21T19:25:16.499Z,81.80
2019-02-21T19:27:45.576Z,82.37
2019-02-21T19:30:18.373Z,82.90
2019-02-21T19:32:47.598Z,83.32
2019-02-21T19:35:17.232Z,83.74
2019-02-21T19:37:48.259Z,83.34
2019-02-21T19:40:20.119Z,84.15
2019-02-21T19:42:50.352Z,84.74
2019-02-21T19:45:19.754Z,84.88
2019-02-21T19:47:49.914Z,84.69
2019-02-21T19:50:19.215Z,84.49
2019-02-21T19:52:48.367Z,84.49
2019-02-21T19:55:17.653Z,84.74
2019-02-21T19:57:47.029Z,84.80
2019-02-21T20:00:17.645Z,85.00
2019-02-21T20:02:47.193Z,85.32
2019-02-21T20:05:16.376Z,85.05
2019-02-21T20:07:46.248Z,85.57
2019-02-21T20:10:16.504Z,85.92
2019-02-21T20:12:46.017Z,86.18
2019-02-21T20:15:15.713Z,86.54
2019-02-21T20:17:45.417Z,86.64
2019-02-21T20:20:17.021Z,86.74
2019-02-21T20:22:46.399Z,87.06
2019-02-21T20:25:15.943Z,87.23
2019-02-21T20:27:45.418Z,87.51
2019-02-21T20:30:15.885Z,87.63
2019-02-21T20:32:45.692Z,87.83
2019-02-21T20:35:15.367Z,88.01
2019-02-21T20:37:44.554Z,87.88
2019-02-21T20:40:14.169Z,87.62
2019-02-21T20:42:43.641Z,87.38
2019-02-21T20:45:12.947Z,87.04
2019-02-21T20:47:42.594Z,86.77
2019-02-21T20:50:12.184Z,86.27
2019-02-21T20:52:41.720Z,86.30
2019-02-21T20:55:11.332Z,86.18
2019-02-21T20:57:40.872Z,85.61
2019-02-21T21:00:11.981Z,85.19
2019-02-21T21:02:41.190Z,84.61
2019-02-21T21:05:10.650Z,84.29
2019-02-21T21:07:39.811Z,84.30
2019-02-21T21:10:11.756Z,84.28
2019-02-21T21:12:41.094Z,83.80
2019-02-21T21:15:11.801Z,82.61
2019-02-21T21:17:41.164Z,82.78
2019-02-21T21:20:16.597Z,82.78
2019-02-21T21:22:42.831Z,82.72
2019-02-21T21:25:13.579Z,82.76
2019-02-21T21:27:42.969Z,82.72
2019-02-21T21:30:13.670Z,82.47
2019-02-21T21:32:42.769Z,82.29
2019-02-21T21:35:12.378Z,81.01
2019-02-21T21:37:41.576Z,80.63
2019-02-21T21:40:12.285Z,81.07
2019-02-21T21:42:41.414Z,81.29
2019-02-21T21:45:13.593Z,81.41
2019-02-21T21:47:42.778Z,81.37
2019-02-21T21:50:13.460Z,81.14
2019-02-21T21:52:42.615Z,81.01
2019-02-21T21:55:11.750Z,81.13
2019-02-21T21:57:40.952Z,81.21
2019-02-21T22:00:13.773Z,81.05
2019-02-21T22:02:42.986Z,81.17
2019-02-21T22:05:12.146Z,80.81
2019-02-21T22:07:41.386Z,80.38
2019-02-21T22:10:11.874Z,80.53
2019-02-21T22:12:41.222Z,80.54
2019-02-21T22:15:11.380Z,80.05
2019-02-21T22:17:42.191Z,80.68
2019-02-21T22:20:11.862Z,80.24
2019-02-21T22:22:41.074Z,79.64
2019-02-21T22:25:11.268Z,79.81
2019-02-21T22:27:40.456Z,80.02
2019-02-21T22:30:11.685Z,80.30
2019-02-21T22:32:40.849Z,80.31
2019-02-21T22:35:09.956Z,80.37
2019-02-21T22:37:39.041Z,80.49
2019-02-21T22:40:09.791Z,80.50
2019-02-21T22:42:39.287Z,80.63
2019-02-21T22:45:09.319Z,80.63
2019-02-21T22:47:38.640Z,80.91
2019-02-21T22:50:10.948Z,81.11
2019-02-21T22:52:40.034Z,81.32
2019-02-21T22:55:10.467Z,81.37
2019-02-21T22:57:39.703Z,81.36
2019-02-21T23:01:07.804Z,81.24
2019-02-21T23:03:58.364Z,81.51
2019-02-21T23:06:57.672Z,81.48
2019-02-21T23:09:28.198Z,81.10
2019-02-21T23:11:57.656Z,81.08
2019-02-21T23:14:28.625Z,80.85
2019-02-21T23:16:57.867Z,80.62
2019-02-21T23:19:27.369Z,80.57
2019-02-21T23:21:56.541Z,80.40
2019-02-21T23:24:25.839Z,80.57
2019-02-21T23:26:55.062Z,80.32
2019-02-21T23:29:24.191Z,80.42
2019-02-21T23:31:53.413Z,80.41
2019-02-21T23:34:43.930Z,80.55
2019-02-21T23:37:13.227Z,80.51
2019-02-21T23:39:42.816Z,80.73
2019-02-21T23:42:12.216Z,81.19
2019-02-21T23:44:41.323Z,82.00
2019-02-21T23:47:10.470Z,82.28
2019-02-21T23:49:39.551Z,82.70
2019-02-21T23:52:10.663Z,82.90
2019-02-21T23:54:39.794Z,83.44
2019-02-21T23:57:09.100Z,83.78
2019-02-21T23:59:38.253Z,83.99
